Overview Statistics Trail Chart Weather Telemetry Raw packets
 

This is the latest recevied weather packets stored in our database for station/object SP3ZBZ-13. If no packets are shown the sender has not sent any weather packets the latest 10 day(s).

<< 27 28 29 30 31 32 33 >>
Time Temp. Humidity Pressure Rain* Wind** Luminosity Snow
1787967875 16.11° C 94% 1005.2 hPa 1.02 mm - - -
1787966974 16.67° C 93% 1005.1 hPa 1.02 mm - - -
1787966072 16.67° C 92% 1005.2 hPa 0.76 mm - - -
1787965172 16.67° C 91% 1005.6 hPa 0.51 mm - - -
1787964271 16.67° C 91% 1005.5 hPa 0.51 mm - - -
1787963370 16.11° C 90% 1005.4 hPa 0.51 mm - - -
1787962469 16.67° C 88% 1005.1 hPa 0.25 mm - - -
1787961568 17.22° C 84% 1005.4 hPa 0.25 mm - - -
1787960667 17.78° C 79% 1005.6 hPa 0.25 mm - - -
1787959766 18.33° C 69% 1005.5 hPa - - - -
1787958865 17.78° C 75% 1005.8 hPa - - - -
1787957964 17.78° C 78% 1005.9 hPa - - - -
1787957063 18.33° C 73% 1005.9 hPa - - - -
1787956162 18.89° C 65% 1006.1 hPa - - - -
1787955261 19.44° C 61% 1006.1 hPa - - - -
1787954360 19.44° C 64% 1005.8 hPa - - - -
1787953459 19.44° C 61% 1006 hPa - - - -
1787952558 19.44° C 61% 1006.2 hPa - - - -
1787951658 19.44° C 61% 1006.4 hPa - - - -
1787950757 20° C 60% 1006.4 hPa - - - -
1787949855 19.44° C 61% 1006.4 hPa - - - -
1787948955 19.44° C 66% 1006 hPa - - - -
1787948054 18.33° C 69% 1006 hPa - - - -
1787947153 18.33° C 72% 1006 hPa - - - -
1787946252 17.78° C 82% 1006.1 hPa - - - -

* Rain latest hour (hover to see other rain measurements)
** Current wind speed in m/s (hover to see current wind gust speed)